Time;durP1;ratioP1;P1;durP2;ratioP2;P2;SDS_P1;SDS_P2;PMS_P1;PMS_P2;Temp;Humidity;BMP_temperature;BMP_pressure;BME280_temperature;BME280_humidity;BME280_pressure;Samples;Min_cycle;Max_cycle;Signal;HPM_P1;HPM_P2
2022/09/17 00:00:41;;;;;;;;;;;10.20;99.90;;;;;;5016675;28;20021;-29
2022/09/17 00:03:08;;;;;;;;;;;10.20;99.90;;;;;;5016761;28;19917;-29
2022/09/17 00:05:36;;;;;;;;;;;10.10;99.90;;;;;;5014886;28;19917;-29
2022/09/17 00:08:02;;;;;;;;;;;10.10;99.90;;;;;;5014866;28;19917;-29
2022/09/17 00:10:29;;;;;;;;;;;10.10;99.90;;;;;;5022770;28;20378;-29
2022/09/17 00:12:55;;;;;;;;;;;10.00;99.90;;;;;;5028148;28;19927;-29
2022/09/17 00:15:20;;;;;;;;;;;10.00;99.90;;;;;;5010954;28;19921;-29
2022/09/17 00:17:46;;;;;;;;;;;9.90;99.90;;;;;;5014756;28;20003;-29
2022/09/17 00:20:12;;;;;;;;;;;9.80;99.90;;;;;;5022982;28;19923;-29
2022/09/17 00:22:37;;;;;;;;;;;9.80;99.90;;;;;;5017522;28;19917;-28
2022/09/17 00:25:04;;;;;;;;;;;9.80;99.90;;;;;;5037894;28;19971;-29
2022/09/17 00:27:30;;;;;;;;;;;9.70;99.90;;;;;;5008974;28;19971;-29
2022/09/17 00:29:55;;;;;;;;;;;9.70;99.90;;;;;;5007741;28;20318;-29
2022/09/17 00:32:22;;;;;;;;;;;9.60;99.90;;;;;;5021805;28;19923;-29
2022/09/17 00:34:50;;;;;;;;;;;9.60;99.90;;;;;;5024293;28;20023;-29
2022/09/17 00:37:17;;;;;;;;;;;9.60;99.90;;;;;;5010966;28;20286;-29
2022/09/17 00:39:42;;;;;;;;;;;9.60;99.90;;;;;;5016069;28;19917;-29
2022/09/17 00:42:09;;;;;;;;;;;9.60;99.90;;;;;;5010662;28;19924;-29
2022/09/17 00:44:40;;;;;;;;;;;9.60;99.90;;;;;;5015479;28;19924;-29
2022/09/17 00:47:16;;;;;;;;;;;9.50;99.90;;;;;;5006894;28;19927;-29
2022/09/17 00:49:42;;;;;;;;;;;9.50;99.90;;;;;;5013304;28;19917;-29
2022/09/17 00:52:10;;;;;;;;;;;9.60;99.90;;;;;;5010963;28;20341;-29
2022/09/17 00:54:37;;;;;;;;;;;9.50;99.90;;;;;;5020369;28;20417;-29
2022/09/17 00:57:03;;;;;;;;;;;9.50;99.90;;;;;;5018869;28;19923;-29
2022/09/17 00:59:28;;;;;;;;;;;9.60;99.90;;;;;;5015416;28;19917;-29
2022/09/17 01:01:54;;;;;;;;;;;9.60;99.90;;;;;;5011529;28;19918;-29
2022/09/17 01:04:24;;;;;;;;;;;9.70;99.90;;;;;;4999934;28;19924;-29
2022/09/17 01:06:49;;;;;;;;;;;9.70;99.90;;;;;;5020049;28;20000;-28
2022/09/17 01:09:24;;;;;;;;;;;9.70;99.90;;;;;;5026772;28;19921;-29
2022/09/17 01:12:02;;;;;;;;;;;9.70;99.90;;;;;;5022471;28;19918;-29
2022/09/17 01:14:44;;;;;;;;;;;9.70;99.90;;;;;;5029657;28;19975;-29
2022/09/17 01:17:17;;;;;;;;;;;9.70;99.90;;;;;;5034034;28;19943;-29
2022/09/17 01:20:06;;;;;;;;;;;9.70;99.90;;;;;;5008346;28;19968;-29
2022/09/17 01:22:50;;;;;;;;;;;9.60;99.90;;;;;;5001661;28;20317;-29
2022/09/17 01:25:24;;;;;;;;;;;9.60;99.90;;;;;;5011108;28;19921;-29
2022/09/17 01:27:53;;;;;;;;;;;9.60;99.90;;;;;;5011731;28;20012;-29
2022/09/17 01:30:58;;;;;;;;;;;9.60;99.90;;;;;;5021457;28;19917;-29
2022/09/17 01:33:27;;;;;;;;;;;9.50;99.90;;;;;;4930838;29;19918;-29
2022/09/17 01:35:56;;;;;;;;;;;9.60;99.90;;;;;;4916862;29;19923;-29
2022/09/17 01:38:27;;;;;;;;;;;9.60;99.90;;;;;;4976392;28;19917;-29
2022/09/17 01:41:08;;;;;;;;;;;9.60;99.90;;;;;;5015274;28;19917;-29
2022/09/17 01:43:42;;;;;;;;;;;9.50;99.90;;;;;;5011775;28;19932;-29
2022/09/17 01:46:11;;;;;;;;;;;9.50;99.90;;;;;;5010107;28;19917;-29
2022/09/17 01:48:39;;;;;;;;;;;9.40;99.90;;;;;;5018097;28;19917;-29
2022/09/17 01:51:06;;;;;;;;;;;9.40;99.90;;;;;;5009360;28;19925;-28
2022/09/17 01:53:50;;;;;;;;;;;9.40;99.90;;;;;;5018588;28;19960;-28
2022/09/17 01:56:18;;;;;;;;;;;9.40;99.90;;;;;;5012811;28;19928;-29
2022/09/17 01:58:46;;;;;;;;;;;9.50;99.90;;;;;;5020160;28;19984;-29
2022/09/17 02:01:14;;;;;;;;;;;9.50;99.90;;;;;;5017783;28;20035;-29
2022/09/17 02:03:42;;;;;;;;;;;9.50;99.90;;;;;;5008200;28;19916;-29
2022/09/17 02:06:11;;;;;;;;;;;9.60;99.90;;;;;;5016766;28;20414;-29
2022/09/17 02:08:55;;;;;;;;;;;9.60;99.90;;;;;;5034626;28;19925;-29
2022/09/17 02:11:21;;;;;;;;;;;9.70;99.90;;;;;;5038477;28;20377;-28
2022/09/17 02:13:53;;;;;;;;;;;9.70;99.90;;;;;;4999377;28;20520;-28
2022/09/17 02:16:25;;;;;;;;;;;9.70;99.90;;;;;;5024799;28;20370;-29
2022/09/17 02:18:58;;;;;;;;;;;9.70;99.90;;;;;;5010097;28;19971;-29
2022/09/17 02:21:30;;;;;;;;;;;9.70;99.90;;;;;;5018798;28;19917;-29
2022/09/17 02:24:08;;;;;;;;;;;9.70;99.90;;;;;;5022645;28;20417;-29
2022/09/17 02:26:36;;;;;;;;;;;9.70;99.90;;;;;;5016225;28;19917;-29
2022/09/17 02:29:06;;;;;;;;;;;9.70;99.90;;;;;;5013471;28;19928;-29
2022/09/17 02:31:32;;;;;;;;;;;9.60;99.90;;;;;;5013289;28;19924;-29
2022/09/17 02:34:00;;;;;;;;;;;9.70;99.90;;;;;;5015734;28;19921;-29
2022/09/17 02:36:26;;;;;;;;;;;9.60;99.90;;;;;;5010151;28;19920;-29
2022/09/17 02:38:59;;;;;;;;;;;9.60;99.90;;;;;;5013821;28;19949;-29
2022/09/17 02:41:28;;;;;;;;;;;9.60;99.90;;;;;;5016208;28;19971;-28
2022/09/17 02:43:55;;;;;;;;;;;9.60;99.90;;;;;;4996514;28;19920;-28
2022/09/17 02:46:24;;;;;;;;;;;9.60;99.90;;;;;;5013985;28;19917;-28
2022/09/17 02:49:13;;;;;;;;;;;9.60;99.90;;;;;;5038093;28;19963;-28
2022/09/17 02:51:58;;;;;;;;;;;9.70;99.90;;;;;;5003538;28;19917;-29
2022/09/17 02:54:26;;;;;;;;;;;9.70;99.90;;;;;;5023361;28;19964;-28
2022/09/17 02:56:56;;;;;;;;;;;9.70;99.90;;;;;;5022003;28;19928;-28
2022/09/17 02:59:23;;;;;;;;;;;9.70;99.90;;;;;;5013804;28;20000;-28
2022/09/17 03:02:02;;;;;;;;;;;9.80;99.90;;;;;;5012771;28;19921;-28
2022/09/17 03:04:28;;;;;;;;;;;9.80;99.90;;;;;;4996441;28;20342;-28
2022/09/17 03:06:54;;;;;;;;;;;9.80;99.90;;;;;;5022305;28;20007;-28
2022/09/17 03:09:20;;;;;;;;;;;9.80;99.90;;;;;;5025182;28;19959;-28
2022/09/17 03:11:49;;;;;;;;;;;9.80;99.90;;;;;;5035838;28;19920;-28
2022/09/17 03:14:14;;;;;;;;;;;9.90;99.90;;;;;;5018353;28;19921;-28
2022/09/17 03:16:40;;;;;;;;;;;10.00;99.90;;;;;;5009801;28;19924;-29
2022/09/17 03:19:05;;;;;;;;;;;10.00;99.90;;;;;;5017842;28;19925;-29
2022/09/17 03:21:31;;;;;;;;;;;10.00;99.90;;;;;;5013298;28;19928;-29
2022/09/17 03:23:59;;;;;;;;;;;10.00;99.90;;;;;;5009115;28;19918;-29
2022/09/17 03:26:25;;;;;;;;;;;10.00;99.90;;;;;;5015565;28;19920;-29
2022/09/17 03:28:51;;;;;;;;;;;9.90;99.90;;;;;;5016732;28;19917;-29
2022/09/17 03:31:16;;;;;;;;;;;9.80;99.90;;;;;;4993349;28;20394;-29
2022/09/17 03:33:42;;;;;;;;;;;9.80;99.90;;;;;;5012950;28;19968;-29
2022/09/17 03:36:07;;;;;;;;;;;9.70;99.90;;;;;;5015708;28;19967;-29
2022/09/17 03:38:33;;;;;;;;;;;9.70;99.90;;;;;;5014465;28;19918;-29
2022/09/17 03:41:05;;;;;;;;;;;9.60;99.90;;;;;;5016341;28;19917;-29
2022/09/17 03:43:31;;;;;;;;;;;9.60;99.90;;;;;;5014379;28;20359;-29
2022/09/17 03:45:56;;;;;;;;;;;9.60;99.90;;;;;;5017175;28;20008;-29
2022/09/17 03:48:22;;;;;;;;;;;9.50;99.90;;;;;;5016155;28;20433;-29
2022/09/17 03:50:48;;;;;;;;;;;9.50;99.90;;;;;;5010353;28;19917;-28
2022/09/17 03:53:14;;;;;;;;;;;9.50;99.90;;;;;;5002457;28;19924;-28
2022/09/17 03:55:43;;;;;;;;;;;9.50;99.90;;;;;;4997003;28;20015;-28
2022/09/17 03:58:08;;;;;;;;;;;9.40;99.90;;;;;;5025112;28;19916;-28
2022/09/17 04:00:36;;;;;;;;;;;9.40;99.90;;;;;;5013529;28;19963;-28
2022/09/17 04:03:05;;;;;;;;;;;9.40;99.90;;;;;;5029661;28;20020;-28
2022/09/17 04:05:31;;;;;;;;;;;9.40;99.90;;;;;;5016214;28;19952;-28
2022/09/17 04:07:57;;;;;;;;;;;9.40;99.90;;;;;;5022342;28;19981;-28
2022/09/17 04:10:23;;;;;;;;;;;9.40;99.90;;;;;;5028131;28;19997;-28
2022/09/17 04:12:48;;;;;;;;;;;9.30;99.90;;;;;;5020268;28;20401;-28
2022/09/17 04:15:14;;;;;;;;;;;9.30;99.90;;;;;;5016808;28;19921;-28
2022/09/17 04:17:40;;;;;;;;;;;9.30;99.90;;;;;;5013311;28;20244;-28
2022/09/17 04:20:06;;;;;;;;;;;9.40;99.90;;;;;;5017093;28;19928;-28
2022/09/17 04:22:32;;;;;;;;;;;9.30;99.90;;;;;;5010333;28;19917;-28
2022/09/17 04:24:57;;;;;;;;;;;9.30;99.90;;;;;;5027186;28;19923;-28
2022/09/17 04:27:23;;;;;;;;;;;9.30;99.90;;;;;;5002256;28;20002;-28
2022/09/17 04:29:49;;;;;;;;;;;9.40;99.90;;;;;;5027628;28;19971;-28
2022/09/17 04:32:14;;;;;;;;;;;9.50;99.90;;;;;;5026349;28;20411;-28
2022/09/17 04:34:40;;;;;;;;;;;9.50;99.90;;;;;;5036685;28;19927;-29
2022/09/17 04:37:05;;;;;;;;;;;9.50;99.90;;;;;;5015738;28;19947;-29
2022/09/17 04:39:31;;;;;;;;;;;9.50;99.90;;;;;;5007772;28;19928;-29
2022/09/17 04:41:57;;;;;;;;;;;9.50;99.90;;;;;;5015302;28;19917;-29
2022/09/17 04:44:22;;;;;;;;;;;9.50;99.90;;;;;;5004273;28;20260;-29
2022/09/17 04:46:48;;;;;;;;;;;9.50;99.90;;;;;;5005860;28;19924;-29
2022/09/17 04:49:13;;;;;;;;;;;9.60;99.90;;;;;;5011837;28;19917;-29
2022/09/17 04:51:39;;;;;;;;;;;9.60;99.90;;;;;;4991531;28;19917;-29
2022/09/17 04:54:05;;;;;;;;;;;9.60;99.90;;;;;;5014803;28;19950;-30
2022/09/17 04:56:30;;;;;;;;;;;9.70;99.90;;;;;;5028785;28;20000;-32
2022/09/17 04:58:56;;;;;;;;;;;9.70;99.90;;;;;;5013330;28;19967;-29
2022/09/17 05:01:22;;;;;;;;;;;9.70;99.90;;;;;;5022388;28;19932;-28
2022/09/17 05:03:48;;;;;;;;;;;9.80;99.90;;;;;;5016878;28;19917;-28
2022/09/17 05:06:14;;;;;;;;;;;9.70;99.90;;;;;;5021819;28;20390;-28
2022/09/17 05:08:40;;;;;;;;;;;9.70;99.90;;;;;;5023271;28;19916;-28
2022/09/17 05:11:05;;;;;;;;;;;9.80;99.90;;;;;;5011448;28;19928;-28
2022/09/17 05:13:31;;;;;;;;;;;9.80;99.90;;;;;;5016610;28;19971;-28
2022/09/17 05:15:56;;;;;;;;;;;9.80;99.90;;;;;;5015220;28;19944;-28
2022/09/17 05:18:22;;;;;;;;;;;9.80;99.90;;;;;;5013687;28;19917;-28
2022/09/17 05:20:48;;;;;;;;;;;9.80;99.90;;;;;;5009979;28;19917;-28
2022/09/17 05:23:14;;;;;;;;;;;9.80;99.90;;;;;;5011150;28;19925;-28
2022/09/17 05:25:39;;;;;;;;;;;9.80;99.90;;;;;;5015444;28;19960;-28
2022/09/17 05:28:05;;;;;;;;;;;9.80;99.90;;;;;;5017382;28;20326;-28
2022/09/17 05:30:31;;;;;;;;;;;9.80;99.90;;;;;;5010506;28;19921;-28
2022/09/17 05:33:00;;;;;;;;;;;9.80;99.90;;;;;;5014495;28;19991;-28
2022/09/17 05:35:26;;;;;;;;;;;9.80;99.90;;;;;;5013313;28;19932;-28
2022/09/17 05:37:55;;;;;;;;;;;9.80;99.90;;;;;;5021107;28;20302;-28
2022/09/17 05:40:20;;;;;;;;;;;9.80;99.90;;;;;;5025236;28;19917;-28
2022/09/17 05:42:46;;;;;;;;;;;9.80;99.90;;;;;;5010345;28;19968;-28
2022/09/17 05:45:12;;;;;;;;;;;9.80;99.90;;;;;;5014325;28;20383;-28
2022/09/17 05:47:37;;;;;;;;;;;9.80;99.90;;;;;;5018690;28;20007;-28
2022/09/17 05:50:03;;;;;;;;;;;9.80;99.90;;;;;;5019357;28;19916;-28
2022/09/17 05:52:29;;;;;;;;;;;9.80;99.90;;;;;;4994761;28;20439;-28
2022/09/17 05:54:55;;;;;;;;;;;9.90;99.90;;;;;;5021021;28;19927;-28
2022/09/17 05:57:21;;;;;;;;;;;9.90;99.90;;;;;;5015243;28;19921;-28
2022/09/17 05:59:46;;;;;;;;;;;9.90;99.90;;;;;;5019521;28;19929;-29
2022/09/17 06:02:12;;;;;;;;;;;10.00;99.90;;;;;;5021788;28;19965;-28
2022/09/17 06:04:38;;;;;;;;;;;10.00;99.90;;;;;;5020359;28;19917;-28
2022/09/17 06:07:06;;;;;;;;;;;10.10;99.90;;;;;;5013262;28;19936;-29
2022/09/17 06:09:33;;;;;;;;;;;10.10;99.90;;;;;;5028607;28;19917;-29
2022/09/17 06:11:59;;;;;;;;;;;10.10;99.90;;;;;;5009162;28;19923;-29
2022/09/17 06:14:24;;;;;;;;;;;10.00;99.90;;;;;;5024696;28;20382;-29
2022/09/17 06:16:50;;;;;;;;;;;10.00;99.90;;;;;;5030388;28;19916;-29
2022/09/17 06:19:15;;;;;;;;;;;10.00;99.90;;;;;;5025748;28;19924;-29
2022/09/17 06:21:41;;;;;;;;;;;9.90;99.90;;;;;;5025631;28;20443;-29
2022/09/17 06:24:08;;;;;;;;;;;9.90;99.90;;;;;;5028388;28;19923;-29
2022/09/17 06:26:34;;;;;;;;;;;10.00;99.90;;;;;;5026631;28;19917;-29
2022/09/17 06:28:59;;;;;;;;;;;10.00;99.90;;;;;;5020477;28;19924;-29
2022/09/17 06:31:25;;;;;;;;;;;10.00;99.90;;;;;;5028620;28;19917;-29
2022/09/17 06:33:51;;;;;;;;;;;10.10;99.90;;;;;;5027526;28;19967;-29
2022/09/17 06:36:16;;;;;;;;;;;10.10;99.90;;;;;;5020840;28;19925;-29
2022/09/17 06:38:42;;;;;;;;;;;10.00;99.90;;;;;;5020715;28;19917;-29
2022/09/17 06:41:08;;;;;;;;;;;10.00;99.90;;;;;;5027089;28;19963;-27
2022/09/17 06:43:33;;;;;;;;;;;9.90;99.90;;;;;;5029523;28;20313;-30
2022/09/17 06:46:00;;;;;;;;;;;9.90;99.90;;;;;;5029201;28;19917;-28
2022/09/17 06:48:26;;;;;;;;;;;9.90;99.90;;;;;;5026760;28;19965;-28
2022/09/17 06:50:53;;;;;;;;;;;9.90;99.90;;;;;;5020645;28;20117;-28
2022/09/17 06:53:19;;;;;;;;;;;9.90;99.90;;;;;;5004606;28;19913;-28
2022/09/17 06:55:45;;;;;;;;;;;10.00;99.90;;;;;;5011510;28;19928;-28
2022/09/17 06:58:10;;;;;;;;;;;10.10;99.90;;;;;;5013715;28;19917;-28
2022/09/17 07:00:36;;;;;;;;;;;10.30;99.90;;;;;;5023257;28;19968;-28
2022/09/17 07:03:01;;;;;;;;;;;10.50;99.90;;;;;;5011629;28;19923;-28
2022/09/17 07:05:28;;;;;;;;;;;10.60;99.90;;;;;;5014449;28;19935;-28
2022/09/17 07:07:54;;;;;;;;;;;10.60;99.90;;;;;;5018392;28;19979;-28
2022/09/17 07:10:20;;;;;;;;;;;10.60;99.90;;;;;;5034544;28;20043;-28
2022/09/17 07:12:46;;;;;;;;;;;10.50;99.90;;;;;;5025695;28;19927;-28
2022/09/17 07:15:12;;;;;;;;;;;10.50;99.90;;;;;;5004180;28;19921;-28
2022/09/17 07:17:39;;;;;;;;;;;10.50;99.90;;;;;;5019881;28;19916;-28
2022/09/17 07:20:06;;;;;;;;;;;10.40;99.90;;;;;;5020710;28;19924;-28
2022/09/17 07:22:31;;;;;;;;;;;10.50;99.90;;;;;;5021192;28;20294;-28
2022/09/17 07:24:57;;;;;;;;;;;10.60;99.90;;;;;;5021947;28;20007;-28
2022/09/17 07:27:23;;;;;;;;;;;10.80;99.90;;;;;;5011200;28;20440;-28
2022/09/17 07:29:48;;;;;;;;;;;10.90;99.90;;;;;;5017749;28;20297;-28
2022/09/17 07:32:17;;;;;;;;;;;11.00;99.90;;;;;;5010898;28;19917;-28
2022/09/17 07:34:42;;;;;;;;;;;11.10;99.90;;;;;;5022348;28;19933;-28
2022/09/17 07:37:08;;;;;;;;;;;11.20;99.90;;;;;;5008940;28;19917;-28
2022/09/17 07:39:34;;;;;;;;;;;11.30;99.90;;;;;;5032529;28;19924;-28
2022/09/17 07:42:00;;;;;;;;;;;11.40;99.90;;;;;;5020769;28;19917;-28
2022/09/17 07:44:25;;;;;;;;;;;11.50;99.90;;;;;;5035660;28;20021;-29
2022/09/17 07:46:51;;;;;;;;;;;11.70;99.90;;;;;;4993276;28;19921;-29
2022/09/17 07:49:17;;;;;;;;;;;11.90;99.90;;;;;;5027254;28;19923;-29
2022/09/17 07:51:42;;;;;;;;;;;12.20;99.90;;;;;;5009151;28;19928;-29
2022/09/17 07:54:08;;;;;;;;;;;12.50;99.90;;;;;;5026193;28;19921;-29
2022/09/17 07:56:34;;;;;;;;;;;12.70;99.90;;;;;;5006905;28;20372;-28
2022/09/17 07:59:01;;;;;;;;;;;12.80;99.90;;;;;;5032015;28;19923;-29
2022/09/17 08:01:26;;;;;;;;;;;12.80;99.90;;;;;;5028792;28;19927;-29
2022/09/17 08:03:53;;;;;;;;;;;13.10;99.90;;;;;;5030544;28;19921;-29
2022/09/17 08:06:20;;;;;;;;;;;13.20;99.90;;;;;;5043896;28;19923;-29
2022/09/17 08:08:45;;;;;;;;;;;13.10;99.90;;;;;;5021277;28;19917;-28
2022/09/17 08:11:12;;;;;;;;;;;13.20;99.90;;;;;;5027151;28;19917;-29
2022/09/17 08:13:38;;;;;;;;;;;13.30;99.90;;;;;;4999809;28;20353;-29
2022/09/17 08:16:06;;;;;;;;;;;13.60;99.90;;;;;;5006278;28;19920;-29
2022/09/17 08:18:32;;;;;;;;;;;13.80;99.90;;;;;;5026118;28;19970;-28
2022/09/17 08:20:58;;;;;;;;;;;14.20;99.90;;;;;;5017421;28;19917;-29
2022/09/17 08:23:25;;;;;;;;;;;14.40;99.90;;;;;;5020050;28;19917;-30
2022/09/17 08:25:51;;;;;;;;;;;14.40;99.90;;;;;;5025477;28;19917;-30
2022/09/17 08:28:17;;;;;;;;;;;14.20;99.90;;;;;;5021299;28;19925;-29
2022/09/17 08:30:47;;;;;;;;;;;13.80;99.90;;;;;;5025734;28;19924;-29
2022/09/17 08:33:13;;;;;;;;;;;13.40;99.90;;;;;;5012442;28;19917;-29
2022/09/17 08:35:39;;;;;;;;;;;13.10;99.90;;;;;;5020595;28;19924;-29
2022/09/17 08:38:06;;;;;;;;;;;12.90;99.90;;;;;;5024814;28;20370;-31
2022/09/17 08:40:35;;;;;;;;;;;12.90;99.90;;;;;;5045708;28;19917;-28
2022/09/17 08:43:01;;;;;;;;;;;12.80;99.90;;;;;;5027828;28;20359;-29
2022/09/17 08:45:28;;;;;;;;;;;12.90;99.90;;;;;;5024374;28;19924;-30
2022/09/17 08:47:59;;;;;;;;;;;13.30;99.90;;;;;;5019902;28;19963;-30
2022/09/17 08:50:31;;;;;;;;;;;13.70;99.90;;;;;;5009349;28;19916;-30
2022/09/17 08:53:01;;;;;;;;;;;13.70;99.90;;;;;;5033326;28;19917;-30
2022/09/17 08:55:35;;;;;;;;;;;13.50;99.90;;;;;;5033478;28;19944;-27
2022/09/17 08:58:01;;;;;;;;;;;13.20;99.90;;;;;;5027885;28;20010;-28
2022/09/17 09:00:29;;;;;;;;;;;13.00;99.90;;;;;;5019622;28;20465;-30
2022/09/17 09:03:09;;;;;;;;;;;12.90;99.90;;;;;;5021902;28;20039;-30
2022/09/17 09:05:46;;;;;;;;;;;13.00;99.90;;;;;;5031161;28;19916;-31
2022/09/17 09:08:24;;;;;;;;;;;13.10;99.90;;;;;;5022347;28;19964;-31
2022/09/17 09:10:54;;;;;;;;;;;13.20;99.90;;;;;;5000922;28;19960;-29
2022/09/17 09:13:21;;;;;;;;;;;13.40;99.90;;;;;;5015090;28;19924;-31
2022/09/17 09:15:53;;;;;;;;;;;13.40;99.90;;;;;;5026057;28;19976;-31
2022/09/17 09:18:20;;;;;;;;;;;14.00;99.90;;;;;;5019803;28;19917;-29
2022/09/17 09:20:54;;;;;;;;;;;14.80;99.90;;;;;;5001043;28;19917;-30
2022/09/17 09:23:20;;;;;;;;;;;15.20;99.90;;;;;;5016253;28;19917;-30
2022/09/17 09:25:52;;;;;;;;;;;15.60;99.90;;;;;;5034977;28;20331;-31
2022/09/17 09:28:20;;;;;;;;;;;16.00;99.90;;;;;;5016256;28;19923;-30
2022/09/17 09:30:54;;;;;;;;;;;16.20;99.90;;;;;;5000624;28;19921;-31
2022/09/17 09:33:25;;;;;;;;;;;16.40;99.90;;;;;;5016481;28;19943;-30
2022/09/17 09:35:51;;;;;;;;;;;16.50;99.90;;;;;;5020802;28;19921;-31
2022/09/17 09:38:35;;;;;;;;;;;16.60;99.90;;;;;;5010632;28;19921;-31
2022/09/17 09:41:06;;;;;;;;;;;16.90;99.90;;;;;;5007860;28;19917;-31
2022/09/17 09:43:36;;;;;;;;;;;16.60;99.90;;;;;;5028283;28;19917;-30
2022/09/17 09:46:02;;;;;;;;;;;16.00;99.90;;;;;;5017956;28;19917;-31
2022/09/17 09:48:37;;;;;;;;;;;15.50;99.90;;;;;;5019573;28;19964;-30
2022/09/17 09:51:14;;;;;;;;;;;15.00;99.90;;;;;;5019585;28;20272;-31
2022/09/17 09:53:46;;;;;;;;;;;15.30;99.90;;;;;;5012797;28;19917;-31
2022/09/17 09:56:18;;;;;;;;;;;15.90;99.90;;;;;;5017592;28;20023;-30
2022/09/17 09:58:43;;;;;;;;;;;16.20;99.90;;;;;;5007180;28;20290;-31
2022/09/17 10:01:09;;;;;;;;;;;16.70;99.90;;;;;;5034294;28;19917;-31
2022/09/17 10:03:37;;;;;;;;;;;16.30;99.90;;;;;;5047064;28;20343;-31
2022/09/17 10:06:04;;;;;;;;;;;15.90;99.90;;;;;;5024586;28;20366;-31
2022/09/17 10:08:31;;;;;;;;;;;15.60;99.90;;;;;;5022951;28;19928;-31
2022/09/17 10:11:02;;;;;;;;;;;15.70;99.90;;;;;;5016168;28;19917;-31
2022/09/17 10:13:29;;;;;;;;;;;16.00;99.90;;;;;;5029194;28;19921;-31
2022/09/17 10:15:55;;;;;;;;;;;16.40;99.90;;;;;;5041280;28;20042;-31
2022/09/17 10:18:22;;;;;;;;;;;16.70;99.90;;;;;;4995813;28;19916;-31
2022/09/17 10:20:48;;;;;;;;;;;17.30;99.90;;;;;;5000133;28;19923;-31
2022/09/17 10:23:14;;;;;;;;;;;17.40;99.90;;;;;;5034505;28;19931;-31
2022/09/17 10:25:43;;;;;;;;;;;16.30;99.90;;;;;;5043477;28;19917;-30
2022/09/17 10:28:27;;;;;;;;;;;15.60;99.90;;;;;;5031491;28;19956;-31
2022/09/17 10:31:02;;;;;;;;;;;15.00;99.90;;;;;;5040298;28;19917;-31
2022/09/17 10:33:29;;;;;;;;;;;15.30;99.90;;;;;;5035633;28;19916;-31
2022/09/17 10:35:55;;;;;;;;;;;16.00;99.90;;;;;;5009908;28;19972;-31
2022/09/17 10:38:31;;;;;;;;;;;16.60;99.90;;;;;;5029898;28;19916;-31
2022/09/17 10:41:12;;;;;;;;;;;17.10;99.90;;;;;;5023297;28;19921;-31
2022/09/17 10:43:38;;;;;;;;;;;17.60;99.90;;;;;;5011963;28;19923;-31
2022/09/17 10:46:06;;;;;;;;;;;17.90;99.90;;;;;;5017132;28;20408;-31
2022/09/17 10:48:36;;;;;;;;;;;18.10;99.90;;;;;;5042528;28;19917;-31
2022/09/17 10:51:02;;;;;;;;;;;18.10;99.90;;;;;;5014661;28;19918;-31
2022/09/17 10:53:28;;;;;;;;;;;17.20;99.90;;;;;;5015618;28;19924;-31
2022/09/17 10:56:09;;;;;;;;;;;16.60;99.90;;;;;;5015826;28;19921;-31
2022/09/17 10:58:47;;;;;;;;;;;16.30;99.90;;;;;;5032177;28;20054;-31
2022/09/17 11:01:31;;;;;;;;;;;16.70;99.90;;;;;;5026890;28;19927;-31
2022/09/17 11:04:09;;;;;;;;;;;17.30;99.90;;;;;;5006311;28;19941;-31
2022/09/17 11:06:53;;;;;;;;;;;17.90;99.90;;;;;;5021344;28;19917;-31
2022/09/17 11:09:28;;;;;;;;;;;18.30;99.90;;;;;;5010743;28;20369;-31
2022/09/17 11:12:00;;;;;;;;;;;18.90;99.90;;;;;;4996177;28;19944;-31
2022/09/17 11:14:34;;;;;;;;;;;18.80;99.90;;;;;;5046948;28;19924;-32
2022/09/17 11:17:09;;;;;;;;;;;19.10;99.90;;;;;;5032059;28;19917;-31
2022/09/17 11:19:49;;;;;;;;;;;19.60;99.90;;;;;;5037536;28;19924;-32
2022/09/17 11:22:15;;;;;;;;;;;19.70;99.90;;;;;;4994168;28;19917;-31
2022/09/17 11:25:10;;;;;;;;;;;19.90;99.90;;;;;;5031724;28;19963;-32
2022/09/17 11:27:48;;;;;;;;;;;20.00;99.90;;;;;;5005737;28;19917;-32
2022/09/17 11:30:23;;;;;;;;;;;20.10;99.90;;;;;;5027361;28;19935;-31
2022/09/17 11:33:14;;;;;;;;;;;20.10;99.90;;;;;;5026975;28;19924;-31
2022/09/17 11:36:00;;;;;;;;;;;19.10;99.90;;;;;;5019761;28;20030;-31
2022/09/17 11:38:26;;;;;;;;;;;17.40;99.90;;;;;;5056090;28;19921;-31
2022/09/17 11:40:52;;;;;;;;;;;16.10;99.90;;;;;;5027369;28;19928;-31
2022/09/17 11:43:25;;;;;;;;;;;15.40;99.90;;;;;;5035443;28;20396;-31
2022/09/17 11:46:08;;;;;;;;;;;14.80;99.90;;;;;;5007436;28;19931;-31
2022/09/17 11:48:37;;;;;;;;;;;14.30;99.90;;;;;;5001831;28;20000;-31
2022/09/17 11:51:18;;;;;;;;;;;13.80;99.90;;;;;;5018011;28;19923;-31
2022/09/17 11:53:48;;;;;;;;;;;13.50;99.90;;;;;;5025782;28;20378;-31
2022/09/17 11:56:13;;;;;;;;;;;13.40;99.90;;;;;;5037075;28;20344;-31
2022/09/17 11:58:45;;;;;;;;;;;13.30;99.90;;;;;;5030747;28;19916;-31
2022/09/17 12:01:25;;;;;;;;;;;13.30;99.90;;;;;;5040944;28;19916;-31
2022/09/17 12:04:00;;;;;;;;;;;13.20;99.90;;;;;;5056077;28;19970;-31
2022/09/17 12:06:39;;;;;;;;;;;13.30;99.90;;;;;;5007051;28;19916;-30
2022/09/17 12:09:05;;;;;;;;;;;13.40;99.90;;;;;;5041117;28;19917;-31
2022/09/17 12:11:39;;;;;;;;;;;13.80;99.90;;;;;;5013734;28;19923;-29
2022/09/17 12:14:21;;;;;;;;;;;14.40;99.90;;;;;;5011361;28;19917;-30
2022/09/17 12:16:51;;;;;;;;;;;15.40;99.90;;;;;;5024849;28;19916;-30
2022/09/17 12:19:22;;;;;;;;;;;15.30;99.90;;;;;;5035561;28;19921;-30
2022/09/17 12:21:50;;;;;;;;;;;14.90;99.90;;;;;;5010688;28;19917;-30
2022/09/17 12:24:20;;;;;;;;;;;14.90;99.90;;;;;;5025627;28;19923;-30
2022/09/17 12:27:12;;;;;;;;;;;15.70;99.90;;;;;;5037218;28;19921;-30
2022/09/17 12:29:58;;;;;;;;;;;16.20;99.90;;;;;;4982013;28;19928;-30
2022/09/17 12:32:42;;;;;;;;;;;16.20;99.90;;;;;;5021885;28;19923;-30
2022/09/17 12:35:11;;;;;;;;;;;16.80;99.90;;;;;;5025105;28;20322;-30
2022/09/17 12:37:39;;;;;;;;;;;16.50;99.90;;;;;;5038512;28;20349;-30
2022/09/17 12:40:17;;;;;;;;;;;16.20;99.90;;;;;;5032292;28;19917;-30
2022/09/17 12:42:48;;;;;;;;;;;15.90;99.90;;;;;;5004580;28;19917;-30
2022/09/17 12:45:32;;;;;;;;;;;15.50;99.90;;;;;;5018129;28;20210;-30
2022/09/17 12:48:07;;;;;;;;;;;15.40;99.90;;;;;;5036193;28;19971;-30
2022/09/17 12:50:52;;;;;;;;;;;15.30;99.90;;;;;;5033277;28;19924;-30
2022/09/17 12:53:41;;;;;;;;;;;15.90;99.90;;;;;;5027529;28;19962;-30
2022/09/17 12:56:19;;;;;;;;;;;17.10;99.90;;;;;;4994232;28;19925;-30
2022/09/17 12:59:07;;;;;;;;;;;18.30;99.90;;;;;;5016445;28;19917;-30
2022/09/17 13:01:35;;;;;;;;;;;19.40;99.90;;;;;;5016025;28;19917;-31
2022/09/17 13:04:16;;;;;;;;;;;20.00;99.90;;;;;;5012596;28;19999;-31
2022/09/17 13:06:45;;;;;;;;;;;20.60;99.90;;;;;;4998201;28;19917;-31
2022/09/17 13:09:26;;;;;;;;;;;20.60;99.90;;;;;;5024479;28;19963;-30
2022/09/17 13:12:01;;;;;;;;;;;19.30;96.30;;;;;;5021036;28;19917;-30
2022/09/17 13:14:33;;;;;;;;;;;18.70;99.90;;;;;;5018510;28;19925;-30
2022/09/17 13:17:04;;;;;;;;;;;18.10;99.90;;;;;;5020322;28;19967;-30
2022/09/17 13:19:35;;;;;;;;;;;17.00;99.90;;;;;;5009844;28;19925;-30
2022/09/17 13:22:05;;;;;;;;;;;16.70;99.90;;;;;;5036121;28;20289;-30
2022/09/17 13:24:32;;;;;;;;;;;16.70;99.90;;;;;;5029789;28;19923;-30
2022/09/17 13:27:00;;;;;;;;;;;17.60;99.90;;;;;;5019770;28;19921;-30
2022/09/17 13:29:44;;;;;;;;;;;18.70;99.90;;;;;;5018146;28;19921;-30
2022/09/17 13:32:28;;;;;;;;;;;19.70;99.90;;;;;;5034530;28;19916;-29
2022/09/17 13:34:54;;;;;;;;;;;20.60;99.90;;;;;;5021343;28;20570;-30
2022/09/17 13:37:21;;;;;;;;;;;21.40;90.00;;;;;;5012989;28;19917;-31
2022/09/17 13:39:48;;;;;;;;;;;21.40;90.00;;;;;;5017382;28;19967;-31
2022/09/17 13:42:23;;;;;;;;;;;21.10;90.50;;;;;;5025611;28;19986;-31
2022/09/17 13:45:18;;;;;;;;;;;21.10;95.00;;;;;;5013271;28;19998;-28
2022/09/17 13:47:52;;;;;;;;;;;21.60;92.40;;;;;;5006482;28;19924;-29
2022/09/17 13:50:33;;;;;;;;;;;21.20;68.20;;;;;;5028806;28;19923;-29
2022/09/17 13:53:07;;;;;;;;;;;20.30;68.40;;;;;;4998246;28;19916;-29
2022/09/17 13:55:38;;;;;;;;;;;19.90;79.70;;;;;;5043644;28;19921;-29
2022/09/17 13:58:09;;;;;;;;;;;19.80;69.10;;;;;;5016950;28;19924;-30
2022/09/17 14:00:51;;;;;;;;;;;20.10;77.50;;;;;;5016214;28;20334;-29
2022/09/17 14:03:36;;;;;;;;;;;20.40;69.40;;;;;;5011029;28;19921;-29
2022/09/17 14:06:06;;;;;;;;;;;21.70;61.10;;;;;;5025389;28;19917;-29
2022/09/17 14:08:44;;;;;;;;;;;22.20;55.60;;;;;;5010283;28;19979;-29
2022/09/17 14:11:22;;;;;;;;;;;23.10;54.50;;;;;;5029958;28;19920;-29
2022/09/17 14:14:17;;;;;;;;;;;23.30;50.60;;;;;;5004792;28;19918;-29
2022/09/17 14:16:44;;;;;;;;;;;23.60;48.40;;;;;;5010167;28;19968;-29
2022/09/17 14:19:16;;;;;;;;;;;23.80;48.00;;;;;;5025599;28;19921;-29
2022/09/17 14:22:00;;;;;;;;;;;23.50;49.90;;;;;;5021972;28;19917;-29
2022/09/17 14:24:26;;;;;;;;;;;22.80;45.80;;;;;;5033005;28;19924;-29
2022/09/17 14:27:01;;;;;;;;;;;21.60;53.00;;;;;;5016250;28;19921;-29
2022/09/17 14:29:32;;;;;;;;;;;20.40;52.40;;;;;;4998048;28;20264;-29
2022/09/17 14:31:58;;;;;;;;;;;19.10;56.60;;;;;;5022879;28;19916;-29
2022/09/17 14:34:25;;;;;;;;;;;17.90;79.80;;;;;;4997898;28;19927;-30
2022/09/17 14:36:51;;;;;;;;;;;17.10;93.40;;;;;;5016204;28;19917;-29